Time;durP1;ratioP1;P1;durP2;ratioP2;P2;SDS_P1;SDS_P2;PMS_P1;PMS_P2;Temp;Humidity;BMP_temperature;BMP_pressure;BME280_temperature;BME280_humidity;BME280_pressure;Samples;Min_cycle;Max_cycle;Signal;HPM_P1;HPM_P2
2023/10/06 00:00:53;;;;;;;18.27;5.93;;;16.80;83.60;;;;;;5066259;28;20559;-55
2023/10/06 00:03:21;;;;;;;14.07;6.20;;;16.80;83.60;;;;;;5079957;28;20025;-55
2023/10/06 00:05:48;;;;;;;13.57;6.25;;;16.80;83.60;;;;;;5066067;28;20017;-55
2023/10/06 00:08:17;;;;;;;13.65;5.45;;;16.70;83.50;;;;;;5064766;28;20025;-55
2023/10/06 00:10:54;;;;;;;16.02;6.53;;;16.70;83.60;;;;;;5063783;28;20025;-55
2023/10/06 00:13:23;;;;;;;14.85;6.05;;;16.70;83.70;;;;;;5065487;28;20039;-55
2023/10/06 00:15:51;;;;;;;17.35;5.78;;;16.70;83.80;;;;;;5066451;28;20013;-55
2023/10/06 00:18:23;;;;;;;15.80;6.20;;;16.70;83.80;;;;;;5064593;28;20025;-55
2023/10/06 00:20:49;;;;;;;12.07;5.72;;;16.60;83.90;;;;;;5064739;28;20152;-55
2023/10/06 00:23:22;;;;;;;12.15;5.22;;;16.60;83.90;;;;;;5064790;28;20028;-55
2023/10/06 00:25:57;;;;;;;10.88;5.15;;;16.60;83.90;;;;;;5064465;28;20029;-55
2023/10/06 00:28:26;;;;;;;;;;;16.60;84.00;;;;;;5066102;28;20041;-55
2023/10/06 00:30:58;;;;;;;16.52;5.47;;;16.50;84.00;;;;;;5066199;28;19976;-55
2023/10/06 00:33:33;;;;;;;11.70;5.22;;;16.50;84.00;;;;;;5080627;28;20040;-55
2023/10/06 00:36:17;;;;;;;14.65;5.43;;;16.50;84.00;;;;;;5065894;28;20510;-55
2023/10/06 00:38:50;;;;;;;8.68;5.07;;;16.50;84.10;;;;;;5079684;28;20046;-55
2023/10/06 00:41:16;;;;;;;12.77;6.25;;;16.40;84.20;;;;;;5064720;28;20044;-55
2023/10/06 00:43:43;;;;;;;16.40;7.10;;;16.40;84.20;;;;;;5047652;28;20089;-55
2023/10/06 00:46:18;;;;;;;14.43;6.00;;;16.40;84.30;;;;;;5080415;28;20041;-55
2023/10/06 00:48:44;;;;;;;13.93;6.57;;;16.40;84.30;;;;;;5066445;28;20029;-55
2023/10/06 00:51:22;;;;;;;11.68;6.30;;;16.40;84.20;;;;;;5048189;28;20097;-55
2023/10/06 00:53:48;;;;;;;11.13;5.78;;;16.40;84.20;;;;;;5068059;28;20025;-55
2023/10/06 00:56:16;;;;;;;9.82;5.25;;;16.40;84.30;;;;;;5048745;28;20531;-55
2023/10/06 00:58:42;;;;;;;10.00;5.40;;;16.40;84.40;;;;;;5063914;28;20041;-55
2023/10/06 01:01:12;;;;;;;11.57;5.18;;;16.30;84.40;;;;;;5064221;28;20495;-55
2023/10/06 01:03:38;;;;;;;10.52;5.70;;;16.30;84.50;;;;;;5065512;28;20036;-55
2023/10/06 01:06:14;;;;;;;9.68;5.25;;;16.30;85.40;;;;;;5081098;28;20106;-55
2023/10/06 01:08:48;;;;;;;10.60;5.40;;;16.30;84.70;;;;;;5062951;28;20025;-55
2023/10/06 01:11:17;;;;;;;12.23;5.55;;;16.20;84.70;;;;;;5065749;28;20063;-55
2023/10/06 01:13:56;;;;;;;9.10;5.03;;;16.20;84.90;;;;;;5080119;28;20541;-55
2023/10/06 01:16:26;;;;;;;8.45;5.13;;;16.20;84.90;;;;;;5079560;28;20029;-55
2023/10/06 01:18:52;;;;;;;8.77;5.40;;;16.10;84.90;;;;;;5069166;28;20021;-55
2023/10/06 01:21:28;;;;;;;7.88;5.15;;;16.20;85.00;;;;;;5084653;28;20033;-55
2023/10/06 01:24:03;;;;;;;10.15;5.97;;;16.10;85.00;;;;;;5069185;28;20048;-55
2023/10/06 01:26:28;;;;;;;9.98;5.70;;;16.10;85.10;;;;;;5083832;28;20033;-55
2023/10/06 01:28:54;;;;;;;11.52;6.35;;;16.10;85.20;;;;;;5084730;28;20043;-55
2023/10/06 01:31:19;;;;;;;9.93;5.57;;;16.10;85.20;;;;;;5067689;28;20033;-56
2023/10/06 01:33:45;;;;;;;9.05;6.30;;;16.10;85.30;;;;;;5067733;28;20025;-55
2023/10/06 01:36:13;;;;;;;12.73;6.68;;;16.10;85.30;;;;;;5085499;28;20044;-55
2023/10/06 01:38:43;;;;;;;10.38;6.65;;;16.10;85.20;;;;;;5077240;28;20115;-55
2023/10/06 01:41:10;;;;;;;12.90;6.95;;;16.00;85.20;;;;;;5075913;28;20025;-55
2023/10/06 01:43:38;;;;;;;11.52;7.18;;;16.00;85.30;;;;;;5088667;28;20020;-55
2023/10/06 01:46:06;;;;;;;10.27;6.22;;;16.00;85.50;;;;;;5075438;28;20036;-54
2023/10/06 01:48:33;;;;;;;12.13;6.70;;;16.00;85.50;;;;;;5050530;28;20029;-55
2023/10/06 01:50:59;;;;;;;9.75;6.38;;;15.90;85.60;;;;;;5068837;28;20036;-55
2023/10/06 01:53:32;;;;;;;12.27;5.97;;;16.00;85.70;;;;;;5067227;28;20029;-55
2023/10/06 01:56:01;;;;;;;9.88;5.75;;;16.00;85.80;;;;;;5066190;28;20029;-55
2023/10/06 01:58:27;;;;;;;11.25;5.88;;;15.90;85.90;;;;;;5068175;28;20029;-55
2023/10/06 02:00:52;;;;;;;12.68;6.20;;;15.90;86.00;;;;;;5067208;28;20032;-55
2023/10/06 02:03:21;;;;;;;8.82;5.60;;;15.90;86.10;;;;;;5067216;28;20029;-55
2023/10/06 02:05:46;;;;;;;8.43;5.38;;;15.90;86.00;;;;;;5067199;28;20025;-55
2023/10/06 02:08:21;;;;;;;12.00;5.65;;;15.90;86.10;;;;;;5040019;28;20096;-55
2023/10/06 02:10:47;;;;;;;9.98;5.25;;;15.90;86.10;;;;;;5068489;28;20032;-55
2023/10/06 02:13:19;;;;;;;8.10;5.32;;;15.90;86.20;;;;;;5066755;28;20032;-55
2023/10/06 02:15:45;;;;;;;8.60;5.32;;;15.90;86.30;;;;;;5063886;28;20017;-55
2023/10/06 02:18:12;;;;;;;10.05;5.85;;;16.00;86.40;;;;;;5067701;28;20025;-55
2023/10/06 02:20:41;;;;;;;9.77;6.57;;;15.80;86.40;;;;;;5049567;28;20036;-55
2023/10/06 02:23:07;;;;;;;11.30;6.72;;;15.80;86.40;;;;;;5049013;28;20029;-55
2023/10/06 02:25:32;;;;;;;11.45;6.53;;;15.80;86.60;;;;;;5063137;28;20087;-56
2023/10/06 02:27:59;;;;;;;15.48;7.18;;;15.80;86.70;;;;;;5067522;28;20124;-55
2023/10/06 02:30:33;;;;;;;13.43;7.50;;;15.80;86.80;;;;;;5066941;28;20032;-55
2023/10/06 02:33:01;;;;;;;13.73;8.10;;;15.80;86.80;;;;;;5066878;28;20454;-55
2023/10/06 02:35:27;;;;;;;11.30;7.63;;;15.70;86.80;;;;;;5067393;28;20045;-55
2023/10/06 02:37:57;;;;;;;10.48;7.45;;;15.80;87.00;;;;;;5066748;28;20063;-55
2023/10/06 02:40:30;;;;;;;11.68;8.02;;;15.70;87.00;;;;;;5068008;28;20060;-55
2023/10/06 02:42:56;;;;;;;12.15;7.80;;;15.70;87.10;;;;;;5082676;28;20036;-55
2023/10/06 02:45:22;;;;;;;13.57;7.45;;;15.70;87.10;;;;;;5066418;28;20068;-55
2023/10/06 02:47:48;;;;;;;11.15;7.55;;;15.80;87.20;;;;;;5067471;28;20052;-55
2023/10/06 02:50:19;;;;;;;10.63;7.15;;;15.60;87.10;;;;;;5082992;28;20029;-55
2023/10/06 02:52:46;;;;;;;13.70;7.05;;;15.60;87.20;;;;;;5065556;28;20550;-55
2023/10/06 02:55:32;;;;;;;12.35;7.20;;;15.60;87.30;;;;;;5082767;28;20037;-55
2023/10/06 02:57:58;;;;;;;14.07;8.10;;;15.60;88.00;;;;;;5066077;28;20477;-55
2023/10/06 03:02:56;;;;;;;12.10;7.03;;;15.60;87.50;;;;;;5083013;28;20358;-55
2023/10/06 03:05:31;;;;;;;10.60;7.22;;;15.60;87.50;;;;;;5082831;28;20024;-55
2023/10/06 03:07:58;;;;;;;10.05;7.20;;;15.50;87.40;;;;;;5081787;28;20054;-55
2023/10/06 03:10:27;;;;;;;10.65;7.57;;;15.60;87.50;;;;;;5083350;28;20040;-55
2023/10/06 03:12:53;;;;;;;12.27;7.88;;;15.50;88.20;;;;;;5082660;28;20025;-55
2023/10/06 03:15:28;;;;;;;13.82;7.38;;;15.50;88.10;;;;;;5065949;28;20064;-55
2023/10/06 03:17:55;;;;;;;9.95;7.03;;;15.40;87.50;;;;;;5067261;28;20071;-55
2023/10/06 03:20:25;;;;;;;10.43;7.20;;;15.50;87.60;;;;;;5066936;28;20033;-55
2023/10/06 03:22:51;;;;;;;11.02;7.20;;;15.40;87.50;;;;;;5081906;28;20029;-55
2023/10/06 03:25:18;;;;;;;11.82;7.15;;;15.40;87.60;;;;;;5082519;28;20028;-55
2023/10/06 03:27:53;;;;;;;11.98;7.43;;;15.40;87.60;;;;;;5065482;28;20048;-55
2023/10/06 03:30:26;;;;;;;;;;;15.40;87.60;;;;;;5066459;28;20088;-55
2023/10/06 03:32:53;;;;;;;9.60;6.68;;;15.40;87.60;;;;;;5066873;28;19909;-55
2023/10/06 03:35:35;;;;;;;8.80;6.85;;;15.40;87.70;;;;;;5082208;28;20033;-55
2023/10/06 03:41:25;;;;;;;13.38;6.75;;;15.40;87.70;;;;;;5066189;28;20118;-55
2023/10/06 03:46:18;;;;;;;9.40;6.20;;;15.30;87.80;;;;;;5079753;28;20039;-55
2023/10/06 03:48:48;;;;;;;9.90;6.32;;;15.30;88.50;;;;;;5080839;28;20078;-55
2023/10/06 03:51:15;;;;;;;10.73;6.53;;;15.30;87.90;;;;;;5058661;28;20036;-55
2023/10/06 03:53:41;;;;;;;8.13;5.85;;;15.30;87.90;;;;;;5077446;28;20033;-55
2023/10/06 03:56:08;;;;;;;12.25;6.35;;;15.30;88.60;;;;;;5066461;28;20062;-55
2023/10/06 03:58:33;;;;;;;10.63;5.90;;;15.30;88.10;;;;;;5063088;28;20025;-55
2023/10/06 04:01:07;;;;;;;10.18;6.00;;;15.30;88.20;;;;;;5048425;28;20032;-56
2023/10/06 04:03:33;;;;;;;11.95;6.15;;;15.20;88.20;;;;;;5064545;28;20033;-55
2023/10/06 04:05:59;;;;;;;8.85;6.03;;;15.20;88.20;;;;;;5066576;28;20029;-55
2023/10/06 04:08:24;;;;;;;9.32;5.82;;;15.20;88.20;;;;;;5065084;28;20074;-55
2023/10/06 04:10:53;;;;;;;13.13;5.88;;;15.20;88.30;;;;;;5066425;28;20028;-55
2023/10/06 04:13:20;;;;;;;8.88;5.68;;;15.20;88.30;;;;;;5060245;28;20361;-55
2023/10/06 04:15:56;;;;;;;11.27;5.90;;;15.10;88.30;;;;;;5064838;28;20047;-55
2023/10/06 04:18:23;;;;;;;8.15;5.63;;;15.10;88.30;;;;;;5064985;28;20499;-55
2023/10/06 04:20:50;;;;;;;12.70;6.10;;;15.10;88.40;;;;;;5045194;28;20507;-55
2023/10/06 04:23:18;;;;;;;7.35;5.47;;;15.10;88.40;;;;;;5048055;28;20033;-55
2023/10/06 04:25:45;;;;;;;8.77;5.43;;;15.10;88.50;;;;;;5048481;28;20080;-55
2023/10/06 04:28:13;;;;;;;11.88;6.13;;;15.10;88.40;;;;;;5062291;28;20044;-55
2023/10/06 04:30:42;;;;;;;12.43;6.18;;;15.10;88.40;;;;;;5064792;28;20061;-55
2023/10/06 04:33:09;;;;;;;12.88;6.20;;;15.00;88.40;;;;;;5047511;28;20032;-55
2023/10/06 04:35:36;;;;;;;15.60;6.93;;;15.00;88.50;;;;;;5031620;28;20029;-55
2023/10/06 04:38:03;;;;;;;31.08;7.30;;;15.00;88.50;;;;;;5064890;28;20048;-55
2023/10/06 04:40:29;;;;;;;25.23;7.93;;;15.00;88.50;;;;;;5064772;28;20035;-55
2023/10/06 04:42:56;;;;;;;17.15;6.95;;;15.00;88.60;;;;;;5063712;28;20148;-55
2023/10/06 04:45:22;;;;;;;52.80;11.52;;;15.00;88.70;;;;;;5047341;28;20028;-55
2023/10/06 04:47:48;;;;;;;48.03;10.90;;;15.00;88.80;;;;;;5064111;28;20060;-55
2023/10/06 04:50:15;;;;;;;49.75;10.18;;;14.90;89.50;;;;;;5063806;28;20468;-55
2023/10/06 04:52:46;;;;;;;42.05;9.90;;;14.90;88.80;;;;;;5068898;28;20026;-55
2023/10/06 04:55:13;;;;;;;53.85;11.20;;;14.90;89.50;;;;;;5068587;28;20033;-55
2023/10/06 04:57:41;;;;;;;37.75;9.98;;;14.90;89.00;;;;;;5068622;28;20036;-55
2023/10/06 05:00:15;;;;;;;41.08;9.55;;;14.90;89.00;;;;;;5051708;28;20028;-55
2023/10/06 05:02:44;;;;;;;39.75;9.45;;;14.80;89.10;;;;;;5068645;28;20054;-55
2023/10/06 05:05:13;;;;;;;45.15;9.32;;;14.80;89.20;;;;;;5068278;28;20025;-55
2023/10/06 05:07:39;;;;;;;40.75;9.35;;;14.80;89.30;;;;;;5068430;28;20029;-55
2023/10/06 05:10:08;;;;;;;42.05;9.65;;;14.80;89.20;;;;;;5069698;28;20128;-55
2023/10/06 05:12:36;;;;;;;52.00;9.90;;;14.80;89.30;;;;;;5069464;28;20037;-55
2023/10/06 05:15:07;;;;;;;50.15;10.65;;;14.80;89.30;;;;;;5068212;28;20025;-55
2023/10/06 05:17:39;;;;;;;46.35;9.48;;;14.80;89.30;;;;;;5069620;28;20049;-55
2023/10/06 05:20:05;;;;;;;42.30;9.25;;;14.80;89.40;;;;;;5068037;28;20163;-55
2023/10/06 05:22:31;;;;;;;34.45;8.80;;;14.80;89.30;;;;;;5067934;28;20029;-55
2023/10/06 05:24:59;;;;;;;49.03;9.48;;;14.80;89.30;;;;;;5051190;28;20033;-55
2023/10/06 05:27:25;;;;;;;35.10;8.80;;;14.80;89.20;;;;;;5051465;28;20037;-55
2023/10/06 05:29:51;;;;;;;35.47;9.07;;;14.80;89.20;;;;;;5069123;28;20045;-55
2023/10/06 05:32:17;;;;;;;23.80;7.80;;;14.80;89.40;;;;;;5068982;28;20052;-55
2023/10/06 05:34:42;;;;;;;39.92;8.70;;;14.80;89.50;;;;;;5067666;28;20361;-55
2023/10/06 05:37:09;;;;;;;34.67;9.45;;;14.80;89.50;;;;;;5051207;28;20053;-55
2023/10/06 05:39:35;;;;;;;32.60;8.98;;;14.70;89.50;;;;;;5069010;28;20028;-55
2023/10/06 05:42:02;;;;;;;34.15;8.32;;;14.70;90.00;;;;;;5067813;28;20124;-55
2023/10/06 05:44:28;;;;;;;34.72;8.90;;;14.70;89.60;;;;;;5068957;28;20108;-55
2023/10/06 05:46:54;;;;;;;25.83;8.45;;;14.70;89.70;;;;;;5067736;28;20088;-55
2023/10/06 05:49:21;;;;;;;26.85;8.98;;;14.70;89.80;;;;;;5051109;28;20443;-54
2023/10/06 05:51:49;;;;;;;37.80;9.27;;;14.70;89.80;;;;;;5068696;28;20499;-55
2023/10/06 05:54:21;;;;;;;28.73;8.35;;;14.60;89.80;;;;;;5068586;28;20123;-55
2023/10/06 05:56:52;;;;;;;31.00;8.02;;;14.70;90.00;;;;;;5068637;28;20040;-55
2023/10/06 05:59:21;;;;;;;35.28;9.18;;;14.60;90.00;;;;;;5051347;28;20029;-55
2023/10/06 06:01:56;;;;;;;24.27;8.63;;;14.60;90.00;;;;;;5067105;28;20017;-55
2023/10/06 06:04:27;;;;;;;25.92;8.02;;;14.60;90.00;;;;;;5056475;28;20040;-55
2023/10/06 06:06:56;;;;;;;29.85;8.40;;;14.60;90.00;;;;;;5066732;28;20074;-55
2023/10/06 06:09:25;;;;;;;23.35;8.10;;;14.60;90.00;;;;;;5080770;28;20070;-55
2023/10/06 06:11:51;;;;;;;28.60;8.23;;;14.60;90.00;;;;;;5065820;28;20021;-55
2023/10/06 06:14:20;;;;;;;21.60;7.70;;;14.60;90.10;;;;;;5066953;28;20098;-55
2023/10/06 06:16:46;;;;;;;22.17;8.57;;;14.50;90.00;;;;;;5066357;28;20017;-55
2023/10/06 06:19:11;;;;;;;26.70;7.60;;;14.60;90.10;;;;;;5049943;28;20461;-55
2023/10/06 06:21:38;;;;;;;23.92;8.27;;;14.60;90.10;;;;;;5066809;28;20025;-55
2023/10/06 06:24:06;;;;;;;23.70;8.48;;;14.60;90.10;;;;;;5062235;28;20085;-55
2023/10/06 06:26:36;;;;;;;21.92;7.95;;;14.60;90.10;;;;;;5060574;28;20041;-55
2023/10/06 06:29:02;;;;;;;26.10;8.45;;;14.60;90.20;;;;;;5074581;28;20071;-55
2023/10/06 06:31:32;;;;;;;22.10;8.05;;;14.50;90.20;;;;;;5071765;28;20032;-55
2023/10/06 06:33:59;;;;;;;27.63;8.63;;;14.50;90.30;;;;;;5051380;28;20040;-55
2023/10/06 06:36:26;;;;;;;22.02;7.57;;;14.50;90.30;;;;;;5065778;28;20094;-55
2023/10/06 06:38:53;;;;;;;19.38;8.27;;;14.50;90.30;;;;;;5064363;28;20078;-55
2023/10/06 06:41:19;;;;;;;24.65;8.75;;;14.50;90.30;;;;;;5064666;28;20043;-55
2023/10/06 06:43:45;;;;;;;21.83;8.50;;;14.50;90.40;;;;;;5067261;28;20024;-55
2023/10/06 06:46:16;;;;;;;28.92;8.65;;;14.50;90.40;;;;;;5050676;28;20044;-55
2023/10/06 06:48:44;;;;;;;34.17;10.07;;;14.50;90.70;;;;;;5047395;28;20480;-55
2023/10/06 06:51:11;;;;;;;24.00;9.20;;;14.50;90.50;;;;;;5046340;28;20078;-55
2023/10/06 06:53:39;;;;;;;21.58;8.52;;;14.50;90.50;;;;;;5047554;28;20036;-55
2023/10/06 06:56:05;;;;;;;34.08;8.85;;;14.50;90.50;;;;;;5047280;28;20022;-55
2023/10/06 06:58:32;;;;;;;35.00;8.68;;;14.60;90.50;;;;;;5046608;28;20016;-55
2023/10/06 07:00:58;;;;;;;30.20;9.77;;;14.60;90.60;;;;;;5074529;28;20059;-55
2023/10/06 07:03:24;;;;;;;28.45;9.77;;;14.60;90.60;;;;;;5086915;28;20504;-55
2023/10/06 07:05:50;;;;;;;32.92;9.32;;;14.60;90.60;;;;;;5070568;28;20025;-55
2023/10/06 07:08:16;;;;;;;38.30;9.63;;;14.60;90.60;;;;;;5067099;28;20089;-55
2023/10/06 07:10:46;;;;;;;41.08;11.07;;;14.60;90.60;;;;;;5059402;28;20069;-55
2023/10/06 07:13:11;;;;;;;52.38;12.82;;;14.60;90.60;;;;;;5066599;28;20035;-55
2023/10/06 07:15:37;;;;;;;78.63;14.05;;;14.60;90.70;;;;;;5047564;28;20436;-55
2023/10/06 07:18:03;;;;;;;91.40;15.45;;;14.60;90.70;;;;;;5021504;28;20442;-55
2023/10/06 07:20:30;;;;;;;58.10;12.93;;;14.60;90.70;;;;;;5047313;28;20113;-55
2023/10/06 07:23:00;;;;;;;69.38;13.25;;;14.60;90.70;;;;;;5049880;28;20032;-55
2023/10/06 07:25:26;;;;;;;50.35;12.70;;;14.60;90.80;;;;;;5027353;28;20092;-55
2023/10/06 07:27:57;;;;;;;72.03;13.77;;;14.60;90.90;;;;;;5060515;28;20089;-55
2023/10/06 07:30:25;;;;;;;81.03;14.57;;;14.60;90.90;;;;;;5064523;28;20044;-55
2023/10/06 07:32:51;;;;;;;78.53;14.15;;;14.70;91.00;;;;;;5048880;28;20031;-55
2023/10/06 07:35:17;;;;;;;135.02;19.13;;;14.70;91.00;;;;;;5062315;28;20119;-55
2023/10/06 07:37:47;;;;;;;131.88;18.40;;;14.70;91.00;;;;;;5044814;28;20050;-55
2023/10/06 07:40:14;;;;;;;107.65;15.52;;;14.70;91.00;;;;;;5064959;28;20040;-55
2023/10/06 07:42:48;;;;;;;86.38;16.65;;;14.70;91.10;;;;;;5062762;28;20548;-55
2023/10/06 07:45:14;;;;;;;81.60;14.85;;;14.70;91.20;;;;;;5043970;28;20517;-55
2023/10/06 07:47:42;;;;;;;74.03;15.90;;;14.70;91.20;;;;;;5064196;28;20200;-55
2023/10/06 07:50:09;;;;;;;69.20;13.88;;;14.70;91.20;;;;;;5046253;28;20036;-55
2023/10/06 07:52:36;;;;;;;76.10;15.15;;;14.70;91.20;;;;;;5062021;28;20032;-55
2023/10/06 07:55:04;;;;;;;73.10;15.93;;;14.70;91.10;;;;;;5043794;28;20478;-55
2023/10/06 07:57:32;;;;;;;74.40;15.93;;;14.70;91.10;;;;;;5065256;28;20035;-55
2023/10/06 07:59:59;;;;;;;68.90;15.07;;;14.70;91.10;;;;;;5074808;28;20055;-55
2023/10/06 08:02:26;;;;;;;57.08;15.30;;;14.70;91.40;;;;;;5043251;28;20040;-55
2023/10/06 08:04:52;;;;;;;82.60;14.82;;;14.80;91.20;;;;;;5045636;28;20017;-55
2023/10/06 08:07:20;;;;;;;62.35;14.38;;;14.80;91.20;;;;;;5063763;28;20055;-55
2023/10/06 08:09:46;;;;;;;52.65;14.82;;;14.80;91.20;;;;;;5064654;28;20036;-55
2023/10/06 08:12:13;;;;;;;54.63;13.98;;;14.80;91.20;;;;;;5075847;28;20039;-55
2023/10/06 08:14:39;;;;;;;62.75;15.52;;;14.80;91.20;;;;;;5061930;28;20112;-51
2023/10/06 08:17:05;;;;;;;75.03;14.57;;;14.80;91.20;;;;;;5062432;28;20124;-52
2023/10/06 08:19:31;;;;;;;58.65;14.45;;;14.80;91.20;;;;;;5065708;28;20032;-51
2023/10/06 08:21:57;;;;;;;50.22;14.75;;;14.80;91.30;;;;;;5074370;28;20025;-51
2023/10/06 08:24:22;;;;;;;70.68;15.85;;;14.80;91.30;;;;;;5054109;28;20028;-51
2023/10/06 08:26:48;;;;;;;70.93;15.68;;;14.90;91.30;;;;;;5057573;28;20090;-51
2023/10/06 08:29:14;;;;;;;82.45;15.68;;;14.90;91.30;;;;;;5049551;28;20043;-51
2023/10/06 08:31:40;;;;;;;74.05;17.27;;;14.90;91.30;;;;;;5045496;28;20061;-51
2023/10/06 08:34:05;;;;;;;89.70;17.52;;;14.90;91.30;;;;;;5061928;28;20029;-51
2023/10/06 08:36:32;;;;;;;68.15;16.38;;;14.90;91.30;;;;;;5060929;28;20076;-51
2023/10/06 08:38:58;;;;;;;74.35;17.58;;;15.00;91.50;;;;;;5072296;28;20086;-51
2023/10/06 08:41:28;;;;;;;93.15;18.02;;;15.00;91.50;;;;;;5081878;28;20029;-51
2023/10/06 08:43:53;;;;;;;80.28;17.65;;;15.00;91.50;;;;;;5055197;28;20080;-51
2023/10/06 08:46:19;;;;;;;94.35;18.48;;;15.00;91.60;;;;;;5047518;28;20044;-51
2023/10/06 08:48:45;;;;;;;107.30;19.73;;;15.00;91.60;;;;;;5041800;28;20043;-51
2023/10/06 08:51:14;;;;;;;91.05;19.80;;;15.00;91.60;;;;;;5061437;28;20037;-51
2023/10/06 08:53:40;;;;;;;111.10;19.92;;;15.00;91.70;;;;;;5044806;28;20029;-51
2023/10/06 08:56:05;;;;;;;105.05;19.75;;;15.00;91.80;;;;;;5059671;28;20104;-51
2023/10/06 08:58:31;;;;;;;110.72;21.38;;;15.00;92.00;;;;;;5044686;28;20037;-52
2023/10/06 09:00:57;;;;;;;81.95;18.77;;;15.10;92.10;;;;;;5060145;28;20107;-51
2023/10/06 09:03:23;;;;;;;87.60;18.27;;;15.10;92.00;;;;;;5044465;28;20033;-51
2023/10/06 09:05:50;;;;;;;103.47;18.63;;;15.10;91.90;;;;;;5063048;28;20051;-51
2023/10/06 09:08:17;;;;;;;96.07;20.23;;;15.20;91.80;;;;;;5061751;28;20025;-51
2023/10/06 09:10:48;;;;;;;107.93;20.83;;;15.20;92.20;;;;;;5057859;28;20024;-51
2023/10/06 09:13:17;;;;;;;130.77;22.05;;;15.20;92.10;;;;;;5060897;28;20367;-51
2023/10/06 09:15:43;;;;;;;130.20;21.92;;;15.30;92.00;;;;;;5044418;28;20102;-51
2023/10/06 09:18:24;;;;;;;123.10;23.45;;;15.30;92.20;;;;;;5076097;28;20063;-51
2023/10/06 09:20:50;;;;;;;134.50;23.17;;;15.30;92.20;;;;;;5044078;28;20029;-51
2023/10/06 09:23:36;;;;;;;118.20;22.45;;;15.40;92.20;;;;;;5061137;28;20036;-52
2023/10/06 09:26:03;;;;;;;125.78;21.80;;;15.40;92.20;;;;;;5043979;28;20392;-51
2023/10/06 09:28:28;;;;;;;119.60;22.23;;;15.40;92.20;;;;;;5058067;28;20091;-51
2023/10/06 09:31:00;;;;;;;133.18;24.50;;;15.50;92.20;;;;;;5059486;28;20029;-51
2023/10/06 09:33:36;;;;;;;134.30;24.05;;;15.50;92.30;;;;;;5062365;28;20060;-51
2023/10/06 09:36:08;;;;;;;;;;;15.50;92.40;;;;;;5077624;28;20021;-51
2023/10/06 09:38:38;;;;;;;145.25;26.50;;;15.50;92.40;;;;;;5060264;28;19923;-51
2023/10/06 09:41:05;;;;;;;104.93;22.15;;;15.60;92.40;;;;;;5047546;28;20055;-51
2023/10/06 09:43:35;;;;;;;144.93;26.25;;;15.60;92.40;;;;;;5051565;28;20120;-51
2023/10/06 09:46:16;;;;;;;139.05;26.35;;;15.60;92.40;;;;;;5051188;28;20025;-51
2023/10/06 09:48:45;;;;;;;159.45;26.63;;;15.60;92.50;;;;;;5051166;28;20048;-52
2023/10/06 09:51:12;;;;;;;147.90;26.48;;;15.70;92.60;;;;;;5068229;28;20028;-51
2023/10/06 09:53:38;;;;;;;166.82;29.90;;;15.60;92.70;;;;;;5049655;28;20025;-51
2023/10/06 09:56:09;;;;;;;172.50;29.17;;;15.70;92.80;;;;;;5033165;28;20056;-52
2023/10/06 09:58:35;;;;;;;154.05;27.83;;;15.80;92.80;;;;;;5045611;28;20026;-51
2023/10/06 10:01:03;;;;;;;163.00;27.88;;;15.80;92.80;;;;;;5030265;28;20029;-52
2023/10/06 10:03:28;;;;;;;144.35;27.67;;;15.80;92.80;;;;;;5030457;28;20045;-51
2023/10/06 10:05:55;;;;;;;153.27;25.92;;;15.80;92.90;;;;;;5040189;28;20021;-52
2023/10/06 10:08:22;;;;;;;136.20;27.20;;;15.90;93.20;;;;;;5048584;28;20088;-51
2023/10/06 10:10:52;;;;;;;147.10;27.20;;;15.90;93.00;;;;;;5030810;28;20021;-52
2023/10/06 10:13:35;;;;;;;144.27;26.05;;;15.90;93.10;;;;;;5046441;28;20029;-51
2023/10/06 10:16:19;;;;;;;160.98;28.42;;;15.90;93.20;;;;;;5064434;28;20100;-51
2023/10/06 10:18:49;;;;;;;124.43;26.77;;;16.00;93.30;;;;;;5047973;28;20045;-52
2023/10/06 10:21:15;;;;;;;152.95;27.40;;;16.10;93.30;;;;;;5031772;28;20499;-52
2023/10/06 10:23:40;;;;;;;180.32;30.75;;;16.10;93.30;;;;;;5049518;28;20041;-52
2023/10/06 10:26:28;;;;;;;152.10;28.48;;;16.10;93.30;;;;;;5031461;28;20040;-51
2023/10/06 10:29:17;;;;;;;132.85;27.58;;;16.20;93.40;;;;;;5067262;28;20029;-52
2023/10/06 10:31:47;;;;;;;172.45;29.83;;;16.20;93.30;;;;;;5047713;28;20030;-51
2023/10/06 10:34:20;;;;;;;176.88;31.58;;;16.30;93.40;;;;;;5046401;28;20034;-52
2023/10/06 10:36:48;;;;;;;178.98;32.92;;;16.30;93.50;;;;;;5080772;28;20029;-52
2023/10/06 10:39:16;;;;;;;268.55;37.60;;;16.30;93.50;;;;;;5065448;28;20036;-52
2023/10/06 10:41:42;;;;;;;205.48;33.83;;;16.30;93.70;;;;;;5049341;28;20021;-51
2023/10/06 10:44:16;;;;;;;186.60;32.20;;;16.40;93.60;;;;;;5048100;28;20031;-52
2023/10/06 10:46:43;;;;;;;179.10;31.15;;;16.40;94.00;;;;;;5067399;28;20088;-51
2023/10/06 10:49:13;;;;;;;169.70;32.33;;;16.40;93.60;;;;;;5031980;28;20179;-52
2023/10/06 10:52:02;;;;;;;232.23;35.10;;;16.50;93.60;;;;;;5049869;28;20040;-52
2023/10/06 10:54:28;;;;;;;203.70;35.25;;;16.50;93.70;;;;;;5065806;28;20033;-51
2023/10/06 10:57:01;;;;;;;248.10;41.28;;;16.60;93.90;;;;;;5048530;28;20033;-51
2023/10/06 10:59:47;;;;;;;274.50;40.55;;;16.60;93.90;;;;;;5045299;28;20024;-52
2023/10/06 11:02:14;;;;;;;224.60;32.53;;;16.60;93.90;;;;;;5033229;28;20037;-51
2023/10/06 11:04:40;;;;;;;193.93;35.08;;;16.70;93.70;;;;;;5066837;28;20024;-52
2023/10/06 11:07:11;;;;;;;244.23;36.80;;;16.70;93.60;;;;;;5066785;28;20029;-52
2023/10/06 11:09:37;;;;;;;199.20;35.28;;;16.80;93.60;;;;;;5026611;28;20026;-51
2023/10/06 11:12:24;;;;;;;184.77;32.85;;;16.80;93.50;;;;;;5072914;28;20477;-51
2023/10/06 11:14:50;;;;;;;190.02;32.05;;;16.80;93.40;;;;;;5063088;28;20032;-51
2023/10/06 11:17:22;;;;;;;202.52;34.28;;;16.90;93.50;;;;;;5060910;28;20021;-51
2023/10/06 11:19:58;;;;;;;174.40;30.63;;;16.90;93.40;;;;;;5045363;28;20033;-51
2023/10/06 11:22:23;;;;;;;182.30;32.45;;;16.90;93.40;;;;;;5049098;28;20108;-51
2023/10/06 11:24:50;;;;;;;210.73;33.85;;;17.00;93.40;;;;;;5065677;28;20052;-52
2023/10/06 11:27:22;;;;;;;200.27;33.30;;;17.00;93.40;;;;;;5045665;28;20060;-51
2023/10/06 11:29:48;;;;;;;183.18;30.70;;;17.00;93.30;;;;;;5056658;28;20029;-52
2023/10/06 11:32:13;;;;;;;202.93;31.77;;;17.10;93.30;;;;;;5048755;28;20040;-52
2023/10/06 11:34:43;;;;;;;182.43;30.38;;;17.20;93.20;;;;;;5048551;28;20040;-52
2023/10/06 11:37:09;;;;;;;164.40;30.08;;;17.20;93.10;;;;;;5045439;28;20053;-52
2023/10/06 11:39:35;;;;;;;144.55;26.50;;;17.20;93.10;;;;;;5045358;28;20044;-52
2023/10/06 11:42:26;;;;;;;161.85;28.88;;;17.20;93.00;;;;;;5060825;28;20036;-52
2023/10/06 11:44:55;;;;;;;175.27;28.45;;;17.20;93.00;;;;;;5077105;28;20124;-51
2023/10/06 11:47:26;;;;;;;160.57;28.92;;;17.30;92.90;;;;;;5062719;28;20032;-51
2023/10/06 11:49:58;;;;;;;148.10;26.95;;;17.30;92.90;;;;;;5064649;28;20040;-52
2023/10/06 11:52:24;;;;;;;122.88;24.98;;;17.40;92.80;;;;;;5047006;28;20082;-51
2023/10/06 11:54:51;;;;;;;116.25;24.40;;;17.40;93.10;;;;;;5047154;28;20052;-52
2023/10/06 11:57:17;;;;;;;136.50;24.35;;;17.40;92.70;;;;;;5070828;28;20362;-52
2023/10/06 11:59:49;;;;;;;106.88;22.90;;;17.50;92.70;;;;;;5048596;28;20033;-51
2023/10/06 12:02:15;;;;;;;97.20;22.20;;;17.50;92.60;;;;;;5062409;28;20131;-52
2023/10/06 12:04:41;;;;;;;112.30;23.30;;;17.50;92.60;;;;;;5045121;28;20045;-52
2023/10/06 12:07:08;;;;;;;116.13;23.67;;;17.50;92.50;;;;;;5064558;28;20036;-52
2023/10/06 12:09:34;;;;;;;115.13;22.35;;;17.60;92.50;;;;;;5050981;28;20555;-52
2023/10/06 12:12:01;;;;;;;98.18;22.55;;;17.60;92.50;;;;;;5039840;28;20051;-52
2023/10/06 12:14:27;;;;;;;109.90;23.65;;;17.70;92.50;;;;;;5045148;28;20024;-52
2023/10/06 12:16:54;;;;;;;108.68;23.65;;;17.70;92.40;;;;;;5045001;28;20036;-52
2023/10/06 12:19:25;;;;;;;102.32;22.92;;;17.70;92.30;;;;;;5047532;28;20033;-52
2023/10/06 12:21:51;;;;;;;100.45;22.15;;;17.80;92.30;;;;;;5026659;28;20024;-52
2023/10/06 12:24:17;;;;;;;85.78;20.70;;;17.80;92.20;;;;;;5071764;28;20039;-51
2023/10/06 12:26:46;;;;;;;96.28;20.98;;;17.90;92.20;;;;;;5065014;28;20033;-51
2023/10/06 12:29:16;;;;;;;94.60;20.13;;;17.90;92.20;;;;;;5065049;28;20033;-52
2023/10/06 12:31:46;;;;;;;74.55;18.60;;;17.90;92.10;;;;;;5045108;28;20472;-51
2023/10/06 12:34:15;;;;;;;68.30;16.17;;;18.00;92.00;;;;;;5081435;28;20024;-52
2023/10/06 12:36:42;;;;;;;87.93;20.13;;;18.00;92.00;;;;;;5066881;28;20050;-52
2023/10/06 12:39:15;;;;;;;82.45;19.38;;;18.10;92.00;;;;;;5060396;28;20581;-51
2023/10/06 12:41:46;;;;;;;81.38;18.55;;;18.20;91.90;;;;;;5064513;28;20396;-53
2023/10/06 12:44:15;;;;;;;87.97;18.48;;;18.10;91.80;;;;;;5064300;28;20029;-51
2023/10/06 12:46:40;;;;;;;91.07;19.52;;;18.20;91.80;;;;;;5065157;28;20048;-52